createdAt,value
2024-04-22T00:00:06.310Z,2.02
2024-04-22T00:02:37.648Z,1.99
2024-04-22T00:05:11.675Z,1.93
2024-04-22T00:07:39.931Z,1.93
2024-04-22T00:10:10.863Z,1.97
2024-04-22T00:12:38.678Z,1.91
2024-04-22T00:15:12.673Z,1.93
2024-04-22T00:17:40.660Z,1.90
2024-04-22T00:20:12.859Z,1.87
2024-04-22T00:22:40.978Z,1.83
2024-04-22T00:25:12.643Z,1.91
2024-04-22T00:27:42.240Z,1.77
2024-04-22T00:30:18.667Z,1.74
2024-04-22T00:32:47.102Z,1.73
2024-04-22T00:35:18.189Z,1.74
2024-04-22T00:37:48.520Z,1.64
2024-04-22T00:40:19.232Z,1.51
2024-04-22T00:42:51.785Z,1.46
2024-04-22T00:45:25.264Z,1.44
2024-04-22T00:47:55.151Z,1.39
2024-04-22T00:50:26.376Z,1.37
2024-04-22T00:52:55.690Z,1.40
2024-04-22T00:55:27.834Z,1.35
2024-04-22T00:57:58.228Z,1.25
2024-04-22T01:00:35.954Z,1.24
2024-04-22T01:03:05.033Z,1.14
2024-04-22T01:05:40.859Z,1.11
2024-04-22T01:08:10.978Z,1.11
2024-04-22T01:10:41.680Z,1.14
2024-04-22T01:13:09.694Z,0.98
2024-04-22T01:15:43.692Z,0.97
2024-04-22T01:18:18.520Z,0.93
2024-04-22T01:20:51.477Z,0.93
2024-04-22T01:23:22.429Z,1.00
2024-04-22T01:25:56.860Z,0.99
2024-04-22T01:28:25.537Z,0.96
2024-04-22T01:30:56.587Z,0.89
2024-04-22T01:33:24.968Z,0.86
2024-04-22T01:35:56.354Z,0.88
2024-04-22T01:38:27.455Z,0.78
2024-04-22T01:41:03.438Z,0.69
2024-04-22T01:43:32.063Z,0.66
2024-04-22T01:46:07.300Z,0.69
2024-04-22T01:48:35.237Z,0.67
2024-04-22T01:51:06.029Z,0.65
2024-04-22T01:53:44.004Z,0.60
2024-04-22T01:56:14.614Z,0.57
2024-04-22T01:58:45.669Z,0.55
2024-04-22T02:01:18.838Z,0.52
2024-04-22T02:03:49.710Z,0.54
2024-04-22T02:06:20.411Z,0.56
2024-04-22T02:08:51.669Z,0.43
2024-04-22T02:11:23.274Z,0.38
2024-04-22T02:13:52.676Z,0.39
2024-04-22T02:16:23.316Z,0.32
2024-04-22T02:18:54.950Z,0.29
2024-04-22T02:21:28.174Z,0.27
2024-04-22T02:24:01.117Z,0.25
2024-04-22T02:26:29.039Z,0.22
2024-04-22T02:28:59.770Z,0.20
2024-04-22T02:31:28.201Z,0.27
2024-04-22T02:33:59.192Z,0.20
2024-04-22T02:36:26.996Z,0.18
2024-04-22T02:39:02.047Z,0.18
2024-04-22T02:41:31.063Z,0.21
2024-04-22T02:44:02.820Z,0.17
2024-04-22T02:46:32.445Z,0.13
2024-04-22T02:49:03.353Z,0.07
2024-04-22T02:51:31.750Z,0.02
2024-04-22T02:54:07.194Z,0.02
2024-04-22T02:56:35.430Z,-0.03
2024-04-22T02:59:08.222Z,-0.07
2024-04-22T03:01:37.502Z,-0.05
2024-04-22T03:04:10.088Z,-0.06
2024-04-22T03:06:37.969Z,-0.06
2024-04-22T03:09:14.294Z,-0.09
2024-04-22T03:11:42.631Z,-0.09
2024-04-22T03:14:14.013Z,-0.13
2024-04-22T03:16:41.838Z,-0.16
2024-04-22T03:19:12.897Z,-0.18
2024-04-22T03:21:41.701Z,-0.20
2024-04-22T03:24:14.905Z,-0.20
2024-04-22T03:26:43.417Z,-0.23
2024-04-22T03:29:18.641Z,-0.23
2024-04-22T03:31:48.707Z,-0.27
2024-04-22T03:34:20.556Z,-0.27
2024-04-22T03:36:51.375Z,-0.29
2024-04-22T03:39:25.186Z,-0.27
2024-04-22T03:41:56.326Z,-0.26
2024-04-22T03:44:28.794Z,-0.30
2024-04-22T03:47:16.525Z,-0.32
2024-04-22T03:49:57.609Z,-0.30
2024-04-22T03:52:31.946Z,-0.37
2024-04-22T03:55:05.339Z,-0.39
2024-04-22T03:57:35.633Z,-0.38
2024-04-22T04:00:06.353Z,-0.41
2024-04-22T04:02:40.044Z,-0.38
2024-04-22T04:05:13.855Z,-0.45
2024-04-22T04:07:42.076Z,-0.47
2024-04-22T04:10:23.631Z,-0.52
2024-04-22T04:12:53.715Z,-0.49
2024-04-22T04:15:27.430Z,-0.44
2024-04-22T04:17:56.329Z,-0.49
2024-04-22T04:20:27.348Z,-0.53
2024-04-22T04:22:55.815Z,-0.52
2024-04-22T04:25:29.258Z,-0.52
2024-04-22T04:27:58.247Z,-0.26
2024-04-22T04:30:29.547Z,-0.18
2024-04-22T04:32:58.136Z,-0.21
2024-04-22T04:35:30.855Z,-0.37
2024-04-22T04:37:59.059Z,-0.35
2024-04-22T04:40:35.277Z,-0.42
2024-04-22T04:43:07.038Z,-0.51
2024-04-22T04:45:37.477Z,-0.46
2024-04-22T04:48:06.343Z,-0.43
2024-04-22T04:50:37.362Z,-0.42
2024-04-22T04:53:05.998Z,-0.32
2024-04-22T04:55:39.553Z,-0.30
2024-04-22T04:58:08.155Z,-0.28
2024-04-22T05:00:39.482Z,-0.14
2024-04-22T05:03:07.614Z,-0.22
2024-04-22T05:05:39.464Z,-0.20
2024-04-22T05:08:07.942Z,-0.08
2024-04-22T05:10:41.993Z,0.07
2024-04-22T05:13:11.491Z,0.00
2024-04-22T05:15:46.917Z,0.31
2024-04-22T05:18:14.924Z,0.55
2024-04-22T05:20:46.388Z,0.65
2024-04-22T05:23:14.883Z,0.73
2024-04-22T05:25:52.783Z,0.69
2024-04-22T05:28:24.751Z,0.75
2024-04-22T05:30:59.643Z,1.24
2024-04-22T05:33:46.221Z,1.36
2024-04-22T05:36:17.350Z,1.21
2024-04-22T05:38:50.470Z,1.08
2024-04-22T05:41:26.528Z,0.91
2024-04-22T05:43:59.526Z,0.94
2024-04-22T05:46:30.084Z,0.99
2024-04-22T05:49:01.135Z,1.02
2024-04-22T05:51:34.698Z,0.98
2024-04-22T05:54:10.400Z,1.05
2024-04-22T05:56:41.212Z,1.22
2024-04-22T05:59:11.645Z,1.38
2024-04-22T06:01:41.375Z,1.43
2024-04-22T06:04:12.242Z,1.46
2024-04-22T06:06:40.922Z,1.57
2024-04-22T06:09:13.619Z,1.67
2024-04-22T06:11:53.475Z,1.66
2024-04-22T06:14:33.472Z,1.90
2024-04-22T06:17:01.548Z,1.89
2024-04-22T06:19:33.530Z,1.95
2024-04-22T06:22:01.338Z,2.02
2024-04-22T06:24:33.569Z,2.08
2024-04-22T06:27:04.448Z,2.27
2024-04-22T06:29:36.055Z,2.28
2024-04-22T06:32:05.920Z,2.32
2024-04-22T06:34:37.332Z,2.41
2024-04-22T06:37:08.489Z,2.42
2024-04-22T06:39:39.963Z,2.44
2024-04-22T06:42:10.919Z,2.48
2024-04-22T06:44:41.720Z,2.63
2024-04-22T06:47:10.758Z,2.81
2024-04-22T06:49:42.295Z,2.95
2024-04-22T06:52:10.701Z,3.08
2024-04-22T06:54:41.985Z,3.19
2024-04-22T06:57:13.925Z,3.31
2024-04-22T06:59:45.480Z,3.26
2024-04-22T07:02:16.445Z,3.59
2024-04-22T07:04:52.372Z,3.74
2024-04-22T07:07:22.033Z,3.98
2024-04-22T07:09:52.559Z,4.15
2024-04-22T07:12:23.145Z,4.09
2024-04-22T07:14:56.292Z,4.14
2024-04-22T07:17:24.866Z,4.32
2024-04-22T07:19:58.513Z,4.55
2024-04-22T07:22:33.581Z,4.60
2024-04-22T07:25:07.837Z,4.75
2024-04-22T07:27:40.179Z,4.76
2024-04-22T07:30:11.909Z,4.94
2024-04-22T07:32:41.107Z,4.88
2024-04-22T07:35:14.839Z,4.97
2024-04-22T07:37:47.399Z,5.02
2024-04-22T07:40:20.629Z,5.14
2024-04-22T07:42:51.309Z,5.22
2024-04-22T07:45:25.357Z,5.21
2024-04-22T07:47:59.487Z,5.30
2024-04-22T07:50:31.119Z,5.40
2024-04-22T07:52:59.541Z,5.67
2024-04-22T07:55:30.920Z,5.75
2024-04-22T07:58:02.440Z,5.83
2024-04-22T08:00:35.096Z,5.86
2024-04-22T08:03:04.076Z,5.89
2024-04-22T08:05:36.563Z,6.01
2024-04-22T08:08:08.746Z,6.25
2024-04-22T08:10:40.935Z,6.37
2024-04-22T08:13:11.565Z,6.43
2024-04-22T08:15:42.054Z,6.39
2024-04-22T08:18:15.301Z,6.52
2024-04-22T08:20:46.026Z,6.83
2024-04-22T08:23:13.856Z,6.63
2024-04-22T08:25:46.578Z,6.64
2024-04-22T08:28:19.316Z,6.67
2024-04-22T08:30:50.114Z,6.84
2024-04-22T08:33:18.095Z,6.66
2024-04-22T08:35:49.904Z,6.68
2024-04-22T08:38:18.043Z,7.12
2024-04-22T08:40:50.364Z,7.27
2024-04-22T08:43:21.181Z,7.55
2024-04-22T08:45:51.741Z,7.27
2024-04-22T08:48:20.760Z,7.35
2024-04-22T08:50:53.388Z,7.02
2024-04-22T08:53:22.067Z,7.21
2024-04-22T08:55:56.673Z,7.37
2024-04-22T08:58:28.099Z,7.18
2024-04-22T09:00:58.931Z,7.28
2024-04-22T09:03:27.190Z,7.59
2024-04-22T09:05:58.150Z,7.22
2024-04-22T09:08:26.087Z,6.73
2024-04-22T09:13:35.707Z,6.66
2024-04-22T09:16:06.786Z,6.80
2024-04-22T09:18:37.753Z,7.08
2024-04-22T09:21:09.597Z,7.88
2024-04-22T09:23:38.589Z,8.25
2024-04-22T09:26:10.448Z,8.41
2024-04-22T09:28:42.729Z,7.99
2024-04-22T09:31:15.626Z,7.65
2024-04-22T09:33:47.842Z,7.75
2024-04-22T09:36:17.320Z,7.87
2024-04-22T09:38:49.933Z,7.53
2024-04-22T09:41:21.986Z,7.54
2024-04-22T09:44:01.197Z,7.39
2024-04-22T09:46:36.606Z,7.33
2024-04-22T09:49:09.698Z,7.34
2024-04-22T09:51:39.439Z,7.12
2024-04-22T09:54:14.126Z,7.37
2024-04-22T09:56:42.243Z,7.46
2024-04-22T09:59:17.115Z,7.97
2024-04-22T10:01:47.336Z,8.22
2024-04-22T10:04:18.088Z,9.25
2024-04-22T10:06:47.370Z,8.68
2024-04-22T10:09:22.716Z,8.21
2024-04-22T10:11:54.579Z,8.06
2024-04-22T10:14:31.921Z,8.27
2024-04-22T10:17:01.198Z,7.90
2024-04-22T10:19:33.802Z,7.71
2024-04-22T10:22:02.140Z,8.08
2024-04-22T10:24:40.980Z,10.54
2024-04-22T10:27:12.378Z,10.69
2024-04-22T10:29:47.376Z,8.96
2024-04-22T10:32:17.197Z,8.78
2024-04-22T10:34:48.731Z,8.80
2024-04-22T10:37:18.644Z,8.47
2024-04-22T10:39:49.929Z,8.63
2024-04-22T10:42:19.416Z,8.50
2024-04-22T10:44:52.868Z,8.65
2024-04-22T10:47:23.685Z,8.50
2024-04-22T10:49:55.150Z,8.58
2024-04-22T10:52:25.759Z,8.46
2024-04-22T10:54:57.273Z,8.50
2024-04-22T10:57:25.169Z,8.10
2024-04-22T11:00:11.830Z,7.99
2024-04-22T11:02:45.394Z,8.08
2024-04-22T11:05:20.287Z,7.85
2024-04-22T11:07:55.205Z,7.95
2024-04-22T11:10:34.304Z,7.71
2024-04-22T11:13:18.353Z,7.60
2024-04-22T11:15:52.550Z,7.57
2024-04-22T11:18:26.019Z,7.71
2024-04-22T11:20:56.007Z,7.80
2024-04-22T11:23:28.036Z,7.90
2024-04-22T11:25:57.611Z,8.14
2024-04-22T11:28:28.799Z,8.51
2024-04-22T11:30:59.761Z,8.93
2024-04-22T11:33:34.020Z,8.44
2024-04-22T11:36:02.120Z,8.91
2024-04-22T11:38:34.033Z,9.52
2024-04-22T11:41:02.317Z,9.42
2024-04-22T11:43:33.190Z,9.33
2024-04-22T11:46:05.880Z,8.82
2024-04-22T11:48:39.751Z,9.07
2024-04-22T11:51:10.490Z,9.22
2024-04-22T11:53:41.892Z,8.90
2024-04-22T11:56:11.380Z,8.87
2024-04-22T11:58:42.772Z,9.18
2024-04-22T12:01:13.925Z,9.20
2024-04-22T12:03:46.629Z,9.02
2024-04-22T12:06:16.002Z,8.99
2024-04-22T12:08:46.890Z,9.73
2024-04-22T12:11:15.028Z,9.34
2024-04-22T12:13:45.532Z,9.05
2024-04-22T12:16:16.637Z,9.83
2024-04-22T12:18:47.720Z,10.93
2024-04-22T12:21:15.532Z,10.36
2024-04-22T12:23:47.091Z,9.72
2024-04-22T12:26:16.514Z,10.76
2024-04-22T12:28:47.418Z,11.81
2024-04-22T12:31:18.587Z,13.16
2024-04-22T12:33:58.731Z,13.14
2024-04-22T12:36:37.198Z,12.62
2024-04-22T12:39:16.795Z,12.75
2024-04-22T12:41:50.005Z,12.55
2024-04-22T12:44:20.535Z,13.22
2024-04-22T12:47:16.566Z,12.74
2024-04-22T12:50:03.137Z,12.25
2024-04-22T12:52:34.376Z,11.89
2024-04-22T12:55:06.378Z,11.51
2024-04-22T12:57:38.916Z,13.08
2024-04-22T13:00:15.748Z,13.46
2024-04-22T13:02:50.444Z,12.87
2024-04-22T13:05:23.203Z,13.04
2024-04-22T13:07:54.229Z,11.37
2024-04-22T13:10:26.109Z,10.24
2024-04-22T13:12:58.489Z,9.94
2024-04-22T13:15:29.118Z,9.72
2024-04-22T13:18:03.325Z,9.91
2024-04-22T13:20:34.638Z,9.60
2024-04-22T13:23:08.435Z,9.87
2024-04-22T13:25:40.018Z,12.19
2024-04-22T13:28:09.186Z,13.26
2024-04-22T13:30:44.099Z,13.90
2024-04-22T13:33:18.487Z,13.88
2024-04-22T13:35:49.871Z,14.11
2024-04-22T13:38:19.258Z,12.61
2024-04-22T13:40:51.876Z,11.51
2024-04-22T13:43:20.070Z,10.52
2024-04-22T13:45:51.722Z,10.13
2024-04-22T13:48:23.691Z,9.92
2024-04-22T13:50:54.258Z,9.80
2024-04-22T13:53:26.927Z,9.32
2024-04-22T13:56:04.814Z,9.28
2024-04-22T13:58:33.288Z,9.15
2024-04-22T14:01:04.973Z,9.19
2024-04-22T14:03:36.512Z,9.11
2024-04-22T14:06:12.021Z,9.16
2024-04-22T14:08:43.700Z,9.52
2024-04-22T14:11:15.485Z,9.55
2024-04-22T14:13:44.735Z,9.98
2024-04-22T14:16:16.193Z,11.42
2024-04-22T14:18:47.706Z,12.40
2024-04-22T14:21:20.501Z,13.41
2024-04-22T14:23:50.195Z,13.85
2024-04-22T14:26:23.253Z,13.75
2024-04-22T14:28:58.399Z,13.86
2024-04-22T14:31:31.524Z,13.77
2024-04-22T14:34:05.335Z,14.05
2024-04-22T14:36:39.618Z,13.79
2024-04-22T14:39:09.696Z,12.27
2024-04-22T14:41:45.223Z,11.27
2024-04-22T14:44:14.245Z,10.75
2024-04-22T14:46:46.678Z,10.43
2024-04-22T14:49:20.326Z,10.41
2024-04-22T14:51:52.263Z,10.18
2024-04-22T14:54:22.163Z,9.81
2024-04-22T14:56:59.080Z,9.74
2024-04-22T14:59:28.062Z,9.35
2024-04-22T15:01:59.658Z,9.17
2024-04-22T15:04:30.873Z,9.18
2024-04-22T15:07:04.491Z,9.11
2024-04-22T15:09:33.410Z,9.10
2024-04-22T15:12:04.643Z,8.94
2024-04-22T15:14:52.343Z,8.96
2024-04-22T15:17:23.483Z,8.99
2024-04-22T15:19:54.757Z,8.79
2024-04-22T15:22:25.454Z,8.72
2024-04-22T15:24:54.809Z,9.06
2024-04-22T15:27:27.784Z,9.03
2024-04-22T15:29:56.141Z,9.07
2024-04-22T15:32:32.781Z,8.85
2024-04-22T15:35:06.780Z,9.00
2024-04-22T15:37:37.615Z,10.26
2024-04-22T15:40:08.027Z,11.04
2024-04-22T15:42:39.886Z,10.33
2024-04-22T15:45:08.189Z,9.96
2024-04-22T15:47:40.301Z,9.54
2024-04-22T15:50:13.003Z,10.09
2024-04-22T15:52:43.926Z,10.01
2024-04-22T15:55:12.671Z,9.87
2024-04-22T15:57:44.001Z,10.88
2024-04-22T16:00:16.347Z,11.64
2024-04-22T16:02:51.007Z,11.94
2024-04-22T16:05:24.554Z,11.78
2024-04-22T16:07:55.023Z,12.33
2024-04-22T16:10:23.989Z,12.34
2024-04-22T16:13:08.360Z,12.88
2024-04-22T16:15:36.551Z,12.83
2024-04-22T16:18:08.955Z,12.19
2024-04-22T16:20:49.437Z,11.80
2024-04-22T16:23:21.127Z,11.95
2024-04-22T16:25:50.481Z,11.97
2024-04-22T16:28:25.045Z,11.37
2024-04-22T16:30:54.131Z,11.03
2024-04-22T16:33:27.589Z,10.56
2024-04-22T16:35:58.026Z,10.90
2024-04-22T16:38:32.697Z,11.53
2024-04-22T16:41:00.548Z,12.01
2024-04-22T16:43:32.465Z,11.89
2024-04-22T16:46:00.674Z,11.41
2024-04-22T16:48:31.781Z,10.28
2024-04-22T16:51:02.895Z,9.70
2024-04-22T16:53:33.456Z,9.60
2024-04-22T16:56:02.467Z,9.26
2024-04-22T16:58:34.584Z,8.75
2024-04-22T17:01:03.238Z,8.56
2024-04-22T17:03:35.669Z,8.47
2024-04-22T17:06:11.715Z,8.56
2024-04-22T17:08:44.746Z,8.99
2024-04-22T17:11:12.706Z,8.98
2024-04-22T17:13:43.426Z,8.81
2024-04-22T17:16:11.472Z,8.66
2024-04-22T17:18:43.314Z,8.61
2024-04-22T17:21:16.699Z,8.47
2024-04-22T17:23:47.608Z,8.44
2024-04-22T17:26:19.121Z,8.34
2024-04-22T17:28:52.413Z,8.65
2024-04-22T17:31:23.581Z,8.64
2024-04-22T17:33:55.310Z,8.36
2024-04-22T17:36:27.373Z,8.28
2024-04-22T17:38:58.683Z,8.29
2024-04-22T17:41:27.543Z,8.22
2024-04-22T17:43:58.824Z,8.26
2024-04-22T17:46:29.243Z,7.96
2024-04-22T17:49:00.928Z,7.85
2024-04-22T17:51:31.495Z,7.78
2024-04-22T17:54:02.929Z,7.75
2024-04-22T17:56:34.376Z,7.82
2024-04-22T17:59:05.817Z,7.67
2024-04-22T18:01:36.327Z,7.71
2024-04-22T18:04:09.102Z,7.56
2024-04-22T18:06:39.531Z,7.60
2024-04-22T18:09:10.735Z,7.51
2024-04-22T18:11:40.015Z,7.37
2024-04-22T18:14:11.599Z,7.26
2024-04-22T18:16:44.449Z,7.19
2024-04-22T18:19:17.460Z,7.04
2024-04-22T18:21:50.761Z,7.03
2024-04-22T18:24:29.035Z,6.92
2024-04-22T18:26:57.536Z,6.87
2024-04-22T18:29:29.435Z,6.82
2024-04-22T18:31:59.521Z,6.75
2024-04-22T18:34:31.284Z,6.62
2024-04-22T18:37:04.239Z,6.51
2024-04-22T18:39:35.921Z,6.37
2024-04-22T18:42:05.398Z,6.32
2024-04-22T18:44:36.241Z,6.21
2024-04-22T18:47:06.555Z,6.12
2024-04-22T18:49:40.143Z,6.06
2024-04-22T18:52:11.201Z,6.02
2024-04-22T18:54:43.390Z,6.14
2024-04-22T18:57:12.391Z,6.14
2024-04-22T18:59:44.316Z,6.15
2024-04-22T19:02:15.852Z,6.11
2024-04-22T19:04:45.102Z,5.91
2024-04-22T19:07:19.869Z,5.86
2024-04-22T19:09:48.282Z,5.88
2024-04-22T19:12:20.384Z,5.83
2024-04-22T19:14:49.306Z,5.76
2024-04-22T19:17:21.174Z,5.65
2024-04-22T19:19:49.270Z,5.58
2024-04-22T19:22:22.674Z,5.49
2024-04-22T19:24:52.754Z,5.41
2024-04-22T19:27:24.235Z,5.35
2024-04-22T19:29:52.735Z,5.24
2024-04-22T19:32:24.623Z,5.22
2024-04-22T19:34:53.818Z,5.17
2024-04-22T19:37:28.422Z,5.21
2024-04-22T19:40:01.324Z,5.25
2024-04-22T19:42:33.803Z,5.21
2024-04-22T19:45:11.406Z,5.20
2024-04-22T19:47:43.578Z,5.07
2024-04-22T19:50:11.556Z,5.00
2024-04-22T19:52:45.072Z,4.97
2024-04-22T19:55:14.610Z,5.02
2024-04-22T19:57:45.296Z,4.97
2024-04-22T20:00:15.644Z,5.00
2024-04-22T20:02:51.233Z,4.95
2024-04-22T20:05:19.476Z,4.67
2024-04-22T20:07:54.401Z,4.57
2024-04-22T20:10:26.235Z,4.53
2024-04-22T20:12:56.721Z,4.48
2024-04-22T20:15:44.815Z,4.47
2024-04-22T20:18:42.687Z,4.49
2024-04-22T20:21:11.217Z,4.38
2024-04-22T20:23:44.640Z,4.41
2024-04-22T20:26:12.593Z,4.34
2024-04-22T20:28:44.387Z,4.28
2024-04-22T20:31:18.325Z,4.26
2024-04-22T20:33:50.268Z,4.21
2024-04-22T20:36:22.399Z,4.17
2024-04-22T20:39:03.105Z,4.09
2024-04-22T20:41:34.774Z,4.00
2024-04-22T20:44:05.624Z,3.98
2024-04-22T20:46:34.946Z,4.00
2024-04-22T20:49:06.677Z,3.94
2024-04-22T20:51:35.362Z,3.79
2024-04-22T20:54:11.172Z,3.78
2024-04-22T20:56:39.414Z,3.74
2024-04-22T20:59:10.919Z,3.71
2024-04-22T21:01:39.594Z,3.72
2024-04-22T21:04:10.223Z,3.68
2024-04-22T21:06:39.119Z,3.70
2024-04-22T21:09:15.592Z,3.68
2024-04-22T21:11:47.455Z,3.58
2024-04-22T21:14:19.089Z,3.53
2024-04-22T21:16:52.769Z,3.52
2024-04-22T21:19:23.458Z,3.48
2024-04-22T21:21:52.494Z,3.44
2024-04-22T21:24:26.121Z,3.35
2024-04-22T21:26:58.306Z,3.27
2024-04-22T21:29:33.809Z,3.23
2024-04-22T21:32:01.783Z,3.28
2024-04-22T21:34:33.238Z,3.18
2024-04-22T21:37:01.673Z,3.06
2024-04-22T21:39:35.812Z,3.11
2024-04-22T21:42:04.558Z,3.10
2024-04-22T21:44:34.925Z,3.11
2024-04-22T21:47:04.309Z,3.05
2024-04-22T21:49:34.973Z,2.99
2024-04-22T21:52:04.300Z,3.00
2024-04-22T21:54:37.364Z,2.98
2024-04-22T21:57:24.655Z,2.90
2024-04-22T22:00:33.112Z,2.89
2024-04-22T22:03:39.021Z,2.81
2024-04-22T22:06:48.792Z,2.77
2024-04-22T22:09:25.495Z,2.79
2024-04-22T22:11:56.217Z,2.77
2024-04-22T22:14:26.042Z,2.71
2024-04-22T22:16:56.780Z,2.71
2024-04-22T22:19:25.135Z,2.72
2024-04-22T22:21:57.617Z,2.62
2024-04-22T22:24:36.647Z,2.57
2024-04-22T22:27:21.394Z,2.52
2024-04-22T22:29:49.220Z,2.52
2024-04-22T22:32:22.458Z,2.53
2024-04-22T22:34:50.488Z,2.51
2024-04-22T22:37:21.335Z,2.47
2024-04-22T22:39:52.907Z,2.46
2024-04-22T22:42:26.456Z,2.46
2024-04-22T22:44:55.514Z,2.39
2024-04-22T22:47:29.216Z,2.31
2024-04-22T22:49:58.478Z,2.20
2024-04-22T22:52:29.130Z,2.21
2024-04-22T22:55:00.265Z,2.21
2024-04-22T22:57:33.639Z,2.13
2024-04-22T23:00:05.508Z,2.16
2024-04-22T23:02:36.508Z,2.12
2024-04-22T23:05:06.293Z,2.16
2024-04-22T23:07:36.793Z,2.09
2024-04-22T23:10:07.541Z,2.04
2024-04-22T23:12:38.055Z,1.96
2024-04-22T23:15:08.037Z,1.94
2024-04-22T23:17:39.559Z,1.87
2024-04-22T23:20:09.215Z,1.90
2024-04-22T23:22:39.907Z,1.95
2024-04-22T23:25:12.489Z,1.93
2024-04-22T23:27:42.836Z,1.92
2024-04-22T23:30:11.443Z,1.96
2024-04-22T23:32:41.890Z,1.87
2024-04-22T23:35:10.665Z,1.80
2024-04-22T23:37:41.325Z,1.76
2024-04-22T23:40:12.328Z,1.73
2024-04-22T23:42:42.963Z,1.75
2024-04-22T23:45:10.863Z,1.78
2024-04-22T23:47:43.611Z,1.77
2024-04-22T23:50:11.525Z,1.76
2024-04-22T23:52:43.011Z,1.74
2024-04-22T23:55:14.870Z,1.68
2024-04-22T23:57:45.299Z,1.67
